Aérodrome :
LOGIN :

S'inscrire | Disclaimer

   EN    FR    IT 

 










Légende :    VFR   VFR Marginal   IFR   IFR Intensif   IFR Très Intensif
Visi : 
Plafond : 
>= 8 km
>= 3000ft
5 à 8 km
1000 à 3000 ft
1500m à 5 km
500 à 1000 ft
800 à 1500m
200 à 500 ft
< 800m
< 200 ft
Symboles :   Orages  Brouillard  Fortes neiges  Fortes précipitations  Vent > 20 kt
SIGMETs :   Divers  Orages  Givrage  Turbulence  Onde Orograph.  Cendres Volcan.






- Altitude de l'aérodrome : 218 ft


EGYD - RAF Cranwell

DERNIER METAR :
  • 091750Z AUTO 27009KT 9999 NCD 00/M01 Q1006

METARs EXPIRÉS :
  • 091720Z AUTO 27010KT 9999 NCD 00/M01 Q1006
  • 091650Z AUTO 26010KT 9999 NCD 00/M01 Q1006
  • 091620Z AUTO 26010KT 9999 NCD 00/M01 Q1006
  • 091550Z AUTO 26009KT 9999 NCD 01/M00 Q1006
  • 091520Z 25009KT 9999 FEW028 01/M01 Q1006 NOSIG RMK BLU BLU

Prévision TAF périmée.



MET'MAP, la Météo Aéronautique d'un coup d'oeil ! - Copyright ORBIFLY Décembre 2007 - Disclaimer

ORBIFLY MET'MAP TEAM :

Programmation & Développement : Alexandra Zaïnal
Sur une idée originale de : Baudouin d'Aumeries
Soutien technique & logistique : Manuel Goepfert
Assistance : Marc-Olivier Méhu




SOURCES & CREDITS :

   NOAA